sensor_id;sensor_type;location;lat;lon;timestamp;P1;durP1;ratioP1;P2;durP2;ratioP2
61471;SDS011;47337;54.068;12.114;2022-07-10T00:00:38;5.70;;;1.50;;
61471;SDS011;47337;54.068;12.114;2022-07-10T00:03:04;6.35;;;1.98;;
61471;SDS011;47337;54.068;12.114;2022-07-10T00:05:30;4.60;;;1.42;;
61471;SDS011;47337;54.068;12.114;2022-07-10T00:07:57;9.40;;;1.40;;
61471;SDS011;47337;54.068;12.114;2022-07-10T00:10:22;7.30;;;1.10;;
61471;SDS011;47337;54.068;12.114;2022-07-10T00:12:49;12.82;;;1.85;;
61471;SDS011;47337;54.068;12.114;2022-07-10T00:15:18;3.80;;;1.13;;
61471;SDS011;47337;54.068;12.114;2022-07-10T00:17:44;12.55;;;1.48;;
61471;SDS011;47337;54.068;12.114;2022-07-10T00:20:11;6.03;;;1.67;;
61471;SDS011;47337;54.068;12.114;2022-07-10T00:22:37;8.07;;;1.63;;
61471;SDS011;47337;54.068;12.114;2022-07-10T00:25:07;4.95;;;1.17;;
61471;SDS011;47337;54.068;12.114;2022-07-10T00:27:34;11.77;;;1.90;;
61471;SDS011;47337;54.068;12.114;2022-07-10T00:30:00;8.00;;;1.90;;
61471;SDS011;47337;54.068;12.114;2022-07-10T00:32:28;7.85;;;2.78;;
61471;SDS011;47337;54.068;12.114;2022-07-10T00:34:56;9.13;;;2.40;;
61471;SDS011;47337;54.068;12.114;2022-07-10T00:37:24;7.05;;;1.85;;
61471;SDS011;47337;54.068;12.114;2022-07-10T00:39:52;6.97;;;2.47;;
61471;SDS011;47337;54.068;12.114;2022-07-10T00:42:18;9.07;;;2.42;;
61471;SDS011;47337;54.068;12.114;2022-07-10T00:44:43;8.85;;;2.53;;
61471;SDS011;47337;54.068;12.114;2022-07-10T00:47:09;9.43;;;2.88;;
61471;SDS011;47337;54.068;12.114;2022-07-10T00:49:36;9.65;;;2.30;;
61471;SDS011;47337;54.068;12.114;2022-07-10T00:52:03;10.82;;;2.10;;
61471;SDS011;47337;54.068;12.114;2022-07-10T00:54:35;9.75;;;2.20;;
61471;SDS011;47337;54.068;12.114;2022-07-10T00:57:03;8.77;;;2.80;;
61471;SDS011;47337;54.068;12.114;2022-07-10T00:59:30;7.15;;;2.20;;
61471;SDS011;47337;54.068;12.114;2022-07-10T01:01:56;10.23;;;2.70;;
61471;SDS011;47337;54.068;12.114;2022-07-10T01:06:51;10.88;;;2.28;;
61471;SDS011;47337;54.068;12.114;2022-07-10T01:09:17;12.48;;;2.63;;
61471;SDS011;47337;54.068;12.114;2022-07-10T01:11:42;8.57;;;2.58;;
61471;SDS011;47337;54.068;12.114;2022-07-10T01:14:11;14.90;;;3.22;;
61471;SDS011;47337;54.068;12.114;2022-07-10T01:16:37;15.13;;;2.67;;
61471;SDS011;47337;54.068;12.114;2022-07-10T01:19:03;10.95;;;2.13;;
61471;SDS011;47337;54.068;12.114;2022-07-10T01:21:29;8.10;;;2.25;;
61471;SDS011;47337;54.068;12.114;2022-07-10T01:23:56;8.10;;;1.88;;
61471;SDS011;47337;54.068;12.114;2022-07-10T01:26:22;7.35;;;1.70;;
61471;SDS011;47337;54.068;12.114;2022-07-10T01:28:49;8.30;;;2.08;;
61471;SDS011;47337;54.068;12.114;2022-07-10T01:31:25;11.35;;;2.50;;
61471;SDS011;47337;54.068;12.114;2022-07-10T01:33:51;6.93;;;1.92;;
61471;SDS011;47337;54.068;12.114;2022-07-10T01:36:20;8.40;;;1.90;;
61471;SDS011;47337;54.068;12.114;2022-07-10T01:38:46;10.50;;;1.90;;
61471;SDS011;47337;54.068;12.114;2022-07-10T01:41:12;7.35;;;1.70;;
61471;SDS011;47337;54.068;12.114;2022-07-10T01:43:37;8.52;;;1.90;;
61471;SDS011;47337;54.068;12.114;2022-07-10T01:46:09;7.18;;;1.60;;
61471;SDS011;47337;54.068;12.114;2022-07-10T01:48:38;7.85;;;1.80;;
61471;SDS011;47337;54.068;12.114;2022-07-10T01:51:03;7.00;;;1.70;;
61471;SDS011;47337;54.068;12.114;2022-07-10T01:53:30;19.58;;;3.03;;
61471;SDS011;47337;54.068;12.114;2022-07-10T01:55:55;11.00;;;2.17;;
61471;SDS011;47337;54.068;12.114;2022-07-10T01:58:21;7.78;;;2.03;;
61471;SDS011;47337;54.068;12.114;2022-07-10T02:00:49;13.30;;;2.58;;
61471;SDS011;47337;54.068;12.114;2022-07-10T02:03:15;7.22;;;1.88;;
61471;SDS011;47337;54.068;12.114;2022-07-10T02:05:58;7.85;;;1.33;;
61471;SDS011;47337;54.068;12.114;2022-07-10T02:08:24;7.85;;;1.88;;
61471;SDS011;47337;54.068;12.114;2022-07-10T02:10:49;10.95;;;1.67;;
61471;SDS011;47337;54.068;12.114;2022-07-10T02:13:17;8.30;;;1.90;;
61471;SDS011;47337;54.068;12.114;2022-07-10T02:15:45;10.95;;;2.30;;
61471;SDS011;47337;54.068;12.114;2022-07-10T02:18:14;5.90;;;1.92;;
61471;SDS011;47337;54.068;12.114;2022-07-10T02:20:40;8.73;;;1.67;;
61471;SDS011;47337;54.068;12.114;2022-07-10T02:23:08;8.98;;;1.70;;
61471;SDS011;47337;54.068;12.114;2022-07-10T02:25:34;9.80;;;2.03;;
61471;SDS011;47337;54.068;12.114;2022-07-10T02:28:02;9.50;;;1.98;;
61471;SDS011;47337;54.068;12.114;2022-07-10T02:30:27;9.25;;;1.95;;
61471;SDS011;47337;54.068;12.114;2022-07-10T02:32:53;6.75;;;1.90;;
61471;SDS011;47337;54.068;12.114;2022-07-10T02:35:18;5.10;;;1.65;;
61471;SDS011;47337;54.068;12.114;2022-07-10T02:37:43;10.57;;;1.90;;
61471;SDS011;47337;54.068;12.114;2022-07-10T02:40:09;9.48;;;1.98;;
61471;SDS011;47337;54.068;12.114;2022-07-10T02:42:35;7.05;;;1.55;;
61471;SDS011;47337;54.068;12.114;2022-07-10T02:45:00;13.25;;;1.95;;
61471;SDS011;47337;54.068;12.114;2022-07-10T02:47:25;9.13;;;2.13;;
61471;SDS011;47337;54.068;12.114;2022-07-10T02:49:51;8.95;;;1.83;;
61471;SDS011;47337;54.068;12.114;2022-07-10T02:52:16;7.43;;;1.52;;
61471;SDS011;47337;54.068;12.114;2022-07-10T02:54:44;7.90;;;1.98;;
61471;SDS011;47337;54.068;12.114;2022-07-10T02:57:09;13.48;;;1.98;;
61471;SDS011;47337;54.068;12.114;2022-07-10T02:59:34;8.52;;;1.95;;
61471;SDS011;47337;54.068;12.114;2022-07-10T03:02:00;17.02;;;3.15;;
61471;SDS011;47337;54.068;12.114;2022-07-10T03:04:26;7.90;;;1.65;;
61471;SDS011;47337;54.068;12.114;2022-07-10T03:06:52;10.18;;;2.13;;
61471;SDS011;47337;54.068;12.114;2022-07-10T03:09:17;10.55;;;1.98;;
61471;SDS011;47337;54.068;12.114;2022-07-10T03:11:49;9.45;;;2.05;;
61471;SDS011;47337;54.068;12.114;2022-07-10T03:14:15;10.38;;;1.83;;
61471;SDS011;47337;54.068;12.114;2022-07-10T03:16:42;9.75;;;1.77;;
61471;SDS011;47337;54.068;12.114;2022-07-10T03:19:08;9.80;;;1.65;;
61471;SDS011;47337;54.068;12.114;2022-07-10T03:21:34;13.10;;;2.65;;
61471;SDS011;47337;54.068;12.114;2022-07-10T03:24:02;8.38;;;1.85;;
61471;SDS011;47337;54.068;12.114;2022-07-10T03:26:28;9.73;;;1.73;;
61471;SDS011;47337;54.068;12.114;2022-07-10T03:28:54;9.63;;;1.98;;
61471;SDS011;47337;54.068;12.114;2022-07-10T03:31:20;8.43;;;1.35;;
61471;SDS011;47337;54.068;12.114;2022-07-10T03:33:45;12.27;;;2.75;;
61471;SDS011;47337;54.068;12.114;2022-07-10T03:36:11;8.40;;;1.67;;
61471;SDS011;47337;54.068;12.114;2022-07-10T03:38:38;6.28;;;1.45;;
61471;SDS011;47337;54.068;12.114;2022-07-10T03:41:03;8.45;;;1.40;;
61471;SDS011;47337;54.068;12.114;2022-07-10T03:43:29;10.80;;;2.10;;
61471;SDS011;47337;54.068;12.114;2022-07-10T03:45:57;10.25;;;1.85;;
61471;SDS011;47337;54.068;12.114;2022-07-10T03:48:26;8.38;;;1.38;;
61471;SDS011;47337;54.068;12.114;2022-07-10T03:50:51;7.45;;;1.83;;
61471;SDS011;47337;54.068;12.114;2022-07-10T03:53:17;9.43;;;1.80;;
61471;SDS011;47337;54.068;12.114;2022-07-10T03:55:46;15.05;;;1.98;;
61471;SDS011;47337;54.068;12.114;2022-07-10T03:58:14;8.68;;;1.45;;
61471;SDS011;47337;54.068;12.114;2022-07-10T04:00:42;7.95;;;1.77;;
61471;SDS011;47337;54.068;12.114;2022-07-10T04:03:08;9.93;;;2.13;;
61471;SDS011;47337;54.068;12.114;2022-07-10T04:05:34;8.07;;;1.92;;
61471;SDS011;47337;54.068;12.114;2022-07-10T04:08:00;14.60;;;2.05;;
61471;SDS011;47337;54.068;12.114;2022-07-10T04:10:27;4.82;;;1.75;;
61471;SDS011;47337;54.068;12.114;2022-07-10T04:12:53;12.18;;;2.88;;
61471;SDS011;47337;54.068;12.114;2022-07-10T04:15:18;11.85;;;2.15;;
61471;SDS011;47337;54.068;12.114;2022-07-10T04:17:45;7.80;;;1.60;;
61471;SDS011;47337;54.068;12.114;2022-07-10T04:20:11;9.60;;;2.20;;
61471;SDS011;47337;54.068;12.114;2022-07-10T04:22:38;11.35;;;1.98;;
61471;SDS011;47337;54.068;12.114;2022-07-10T04:25:04;8.77;;;1.77;;
61471;SDS011;47337;54.068;12.114;2022-07-10T04:27:30;11.68;;;1.88;;
61471;SDS011;47337;54.068;12.114;2022-07-10T04:29:58;9.32;;;1.63;;
61471;SDS011;47337;54.068;12.114;2022-07-10T04:32:23;10.13;;;1.60;;
61471;SDS011;47337;54.068;12.114;2022-07-10T04:34:49;6.57;;;1.92;;
61471;SDS011;47337;54.068;12.114;2022-07-10T04:37:14;9.60;;;1.70;;
61471;SDS011;47337;54.068;12.114;2022-07-10T04:39:40;8.32;;;2.10;;
61471;SDS011;47337;54.068;12.114;2022-07-10T04:42:06;8.32;;;1.75;;
61471;SDS011;47337;54.068;12.114;2022-07-10T04:44:32;6.95;;;1.17;;
61471;SDS011;47337;54.068;12.114;2022-07-10T04:46:58;10.63;;;1.73;;
61471;SDS011;47337;54.068;12.114;2022-07-10T04:49:24;9.25;;;1.50;;
61471;SDS011;47337;54.068;12.114;2022-07-10T04:51:50;12.05;;;1.90;;
61471;SDS011;47337;54.068;12.114;2022-07-10T04:54:18;7.22;;;1.80;;
61471;SDS011;47337;54.068;12.114;2022-07-10T04:56:45;9.48;;;1.65;;
61471;SDS011;47337;54.068;12.114;2022-07-10T04:59:13;7.80;;;2.17;;
61471;SDS011;47337;54.068;12.114;2022-07-10T05:01:38;7.35;;;1.65;;
61471;SDS011;47337;54.068;12.114;2022-07-10T05:04:04;6.97;;;1.20;;
61471;SDS011;47337;54.068;12.114;2022-07-10T05:06:29;7.65;;;1.48;;
61471;SDS011;47337;54.068;12.114;2022-07-10T05:08:55;11.88;;;1.42;;
61471;SDS011;47337;54.068;12.114;2022-07-10T05:11:21;8.73;;;1.52;;
61471;SDS011;47337;54.068;12.114;2022-07-10T05:13:47;7.70;;;2.00;;
61471;SDS011;47337;54.068;12.114;2022-07-10T05:16:16;10.05;;;1.98;;
61471;SDS011;47337;54.068;12.114;2022-07-10T05:18:41;7.68;;;1.42;;
61471;SDS011;47337;54.068;12.114;2022-07-10T05:21:09;7.72;;;1.98;;
61471;SDS011;47337;54.068;12.114;2022-07-10T05:23:35;5.43;;;1.10;;
61471;SDS011;47337;54.068;12.114;2022-07-10T05:26:05;5.55;;;1.20;;
61471;SDS011;47337;54.068;12.114;2022-07-10T05:28:31;5.85;;;1.65;;
61471;SDS011;47337;54.068;12.114;2022-07-10T05:30:56;5.35;;;1.42;;
61471;SDS011;47337;54.068;12.114;2022-07-10T05:33:24;4.30;;;1.02;;
61471;SDS011;47337;54.068;12.114;2022-07-10T05:35:51;5.85;;;1.58;;
61471;SDS011;47337;54.068;12.114;2022-07-10T05:38:17;5.00;;;1.27;;
61471;SDS011;47337;54.068;12.114;2022-07-10T05:40:42;6.97;;;1.77;;
61471;SDS011;47337;54.068;12.114;2022-07-10T05:43:10;9.65;;;1.65;;
61471;SDS011;47337;54.068;12.114;2022-07-10T05:45:39;7.45;;;1.80;;
61471;SDS011;47337;54.068;12.114;2022-07-10T05:48:04;8.43;;;1.58;;
61471;SDS011;47337;54.068;12.114;2022-07-10T05:50:32;5.95;;;1.40;;
61471;SDS011;47337;54.068;12.114;2022-07-10T05:53:00;7.43;;;1.52;;
61471;SDS011;47337;54.068;12.114;2022-07-10T05:55:26;9.10;;;1.80;;
61471;SDS011;47337;54.068;12.114;2022-07-10T05:57:53;8.73;;;1.67;;
61471;SDS011;47337;54.068;12.114;2022-07-10T06:00:19;5.30;;;1.30;;
61471;SDS011;47337;54.068;12.114;2022-07-10T06:05:14;5.45;;;1.42;;
61471;SDS011;47337;54.068;12.114;2022-07-10T06:07:42;6.32;;;1.30;;
61471;SDS011;47337;54.068;12.114;2022-07-10T06:10:10;5.60;;;1.40;;
61471;SDS011;47337;54.068;12.114;2022-07-10T06:12:38;10.02;;;1.60;;
61471;SDS011;47337;54.068;12.114;2022-07-10T06:15:03;7.78;;;1.73;;
61471;SDS011;47337;54.068;12.114;2022-07-10T06:17:29;7.80;;;1.60;;
61471;SDS011;47337;54.068;12.114;2022-07-10T06:19:55;6.28;;;1.73;;
61471;SDS011;47337;54.068;12.114;2022-07-10T06:22:23;8.98;;;1.35;;
61471;SDS011;47337;54.068;12.114;2022-07-10T06:24:58;10.80;;;1.70;;
61471;SDS011;47337;54.068;12.114;2022-07-10T06:27:25;9.10;;;1.33;;
61471;SDS011;47337;54.068;12.114;2022-07-10T06:29:50;9.88;;;1.67;;
61471;SDS011;47337;54.068;12.114;2022-07-10T06:32:16;9.00;;;1.63;;
61471;SDS011;47337;54.068;12.114;2022-07-10T06:34:41;5.90;;;1.40;;
61471;SDS011;47337;54.068;12.114;2022-07-10T06:37:07;9.02;;;2.03;;
61471;SDS011;47337;54.068;12.114;2022-07-10T06:39:33;9.85;;;1.63;;
61471;SDS011;47337;54.068;12.114;2022-07-10T06:41:59;5.45;;;1.63;;
61471;SDS011;47337;54.068;12.114;2022-07-10T06:44:28;5.75;;;1.05;;
61471;SDS011;47337;54.068;12.114;2022-07-10T06:46:54;5.40;;;0.80;;
61471;SDS011;47337;54.068;12.114;2022-07-10T06:49:39;4.90;;;1.15;;
61471;SDS011;47337;54.068;12.114;2022-07-10T06:52:08;12.18;;;1.38;;
61471;SDS011;47337;54.068;12.114;2022-07-10T06:54:33;2.83;;;1.13;;
61471;SDS011;47337;54.068;12.114;2022-07-10T06:56:59;9.65;;;1.45;;
61471;SDS011;47337;54.068;12.114;2022-07-10T06:59:27;4.57;;;1.50;;
61471;SDS011;47337;54.068;12.114;2022-07-10T07:01:53;5.53;;;0.93;;
61471;SDS011;47337;54.068;12.114;2022-07-10T07:04:19;5.65;;;1.05;;
61471;SDS011;47337;54.068;12.114;2022-07-10T07:06:44;6.13;;;1.60;;
61471;SDS011;47337;54.068;12.114;2022-07-10T07:09:10;5.20;;;1.13;;
61471;SDS011;47337;54.068;12.114;2022-07-10T07:11:36;5.70;;;0.80;;
61471;SDS011;47337;54.068;12.114;2022-07-10T07:14:06;4.78;;;1.10;;
61471;SDS011;47337;54.068;12.114;2022-07-10T07:16:34;5.43;;;1.30;;
61471;SDS011;47337;54.068;12.114;2022-07-10T07:19:11;6.15;;;0.90;;
61471;SDS011;47337;54.068;12.114;2022-07-10T07:21:42;5.00;;;1.27;;
61471;SDS011;47337;54.068;12.114;2022-07-10T07:24:26;4.75;;;0.90;;
61471;SDS011;47337;54.068;12.114;2022-07-10T07:26:51;10.20;;;2.05;;
61471;SDS011;47337;54.068;12.114;2022-07-10T07:29:18;6.38;;;0.93;;
61471;SDS011;47337;54.068;12.114;2022-07-10T07:31:44;4.70;;;0.95;;
61471;SDS011;47337;54.068;12.114;2022-07-10T07:34:09;6.88;;;1.35;;
61471;SDS011;47337;54.068;12.114;2022-07-10T07:36:35;4.13;;;0.85;;
61471;SDS011;47337;54.068;12.114;2022-07-10T07:39:00;4.35;;;0.88;;
61471;SDS011;47337;54.068;12.114;2022-07-10T07:41:28;5.32;;;1.23;;
61471;SDS011;47337;54.068;12.114;2022-07-10T07:43:58;4.82;;;1.10;;
61471;SDS011;47337;54.068;12.114;2022-07-10T07:46:26;3.35;;;0.90;;
61471;SDS011;47337;54.068;12.114;2022-07-10T07:48:51;6.72;;;1.15;;
61471;SDS011;47337;54.068;12.114;2022-07-10T07:51:19;4.15;;;1.00;;
61471;SDS011;47337;54.068;12.114;2022-07-10T07:53:47;5.28;;;1.20;;
61471;SDS011;47337;54.068;12.114;2022-07-10T07:56:12;6.70;;;1.23;;
61471;SDS011;47337;54.068;12.114;2022-07-10T07:58:43;5.78;;;1.83;;
61471;SDS011;47337;54.068;12.114;2022-07-10T08:01:11;7.70;;;1.52;;
61471;SDS011;47337;54.068;12.114;2022-07-10T08:03:37;6.60;;;1.65;;
61471;SDS011;47337;54.068;12.114;2022-07-10T08:06:02;4.35;;;1.00;;
61471;SDS011;47337;54.068;12.114;2022-07-10T08:08:28;10.60;;;1.88;;
61471;SDS011;47337;54.068;12.114;2022-07-10T08:10:57;9.48;;;1.40;;
61471;SDS011;47337;54.068;12.114;2022-07-10T08:13:24;10.07;;;1.33;;
61471;SDS011;47337;54.068;12.114;2022-07-10T08:15:52;8.18;;;1.10;;
61471;SDS011;47337;54.068;12.114;2022-07-10T08:18:17;6.13;;;1.95;;
61471;SDS011;47337;54.068;12.114;2022-07-10T08:20:43;4.18;;;1.23;;
61471;SDS011;47337;54.068;12.114;2022-07-10T08:23:08;3.13;;;0.93;;
61471;SDS011;47337;54.068;12.114;2022-07-10T08:25:34;5.63;;;1.35;;
61471;SDS011;47337;54.068;12.114;2022-07-10T08:28:03;2.70;;;0.95;;
61471;SDS011;47337;54.068;12.114;2022-07-10T08:30:30;5.22;;;0.88;;
61471;SDS011;47337;54.068;12.114;2022-07-10T08:32:58;3.95;;;1.23;;
61471;SDS011;47337;54.068;12.114;2022-07-10T08:35:26;5.93;;;1.25;;
61471;SDS011;47337;54.068;12.114;2022-07-10T08:37:52;4.68;;;1.10;;
61471;SDS011;47337;54.068;12.114;2022-07-10T08:40:21;6.10;;;1.55;;
61471;SDS011;47337;54.068;12.114;2022-07-10T08:42:47;4.32;;;1.30;;
61471;SDS011;47337;54.068;12.114;2022-07-10T08:45:13;4.47;;;0.90;;
61471;SDS011;47337;54.068;12.114;2022-07-10T08:47:41;5.97;;;0.90;;
61471;SDS011;47337;54.068;12.114;2022-07-10T08:50:16;6.03;;;0.98;;
61471;SDS011;47337;54.068;12.114;2022-07-10T08:52:43;2.67;;;0.93;;
61471;SDS011;47337;54.068;12.114;2022-07-10T08:55:19;6.65;;;1.02;;
61471;SDS011;47337;54.068;12.114;2022-07-10T08:57:47;6.07;;;1.52;;
61471;SDS011;47337;54.068;12.114;2022-07-10T09:00:15;7.30;;;1.40;;
61471;SDS011;47337;54.068;12.114;2022-07-10T09:02:41;4.32;;;0.88;;
61471;SDS011;47337;54.068;12.114;2022-07-10T09:05:07;2.95;;;1.33;;
61471;SDS011;47337;54.068;12.114;2022-07-10T09:07:37;2.67;;;0.70;;
61471;SDS011;47337;54.068;12.114;2022-07-10T09:10:07;3.95;;;0.90;;
61471;SDS011;47337;54.068;12.114;2022-07-10T09:12:53;3.60;;;1.17;;
61471;SDS011;47337;54.068;12.114;2022-07-10T09:15:21;3.85;;;0.95;;
61471;SDS011;47337;54.068;12.114;2022-07-10T09:17:55;5.70;;;0.57;;
61471;SDS011;47337;54.068;12.114;2022-07-10T09:20:34;5.82;;;1.10;;
61471;SDS011;47337;54.068;12.114;2022-07-10T09:23:20;4.07;;;1.10;;
61471;SDS011;47337;54.068;12.114;2022-07-10T09:25:47;3.55;;;0.90;;
61471;SDS011;47337;54.068;12.114;2022-07-10T09:28:13;5.50;;;0.90;;
61471;SDS011;47337;54.068;12.114;2022-07-10T09:30:42;4.97;;;1.55;;
61471;SDS011;47337;54.068;12.114;2022-07-10T09:46:46;3.45;;;1.00;;
61471;SDS011;47337;54.068;12.114;2022-07-10T09:49:12;9.90;;;1.55;;
61471;SDS011;47337;54.068;12.114;2022-07-10T09:51:40;3.33;;;1.02;;
61471;SDS011;47337;54.068;12.114;2022-07-10T09:54:08;4.93;;;1.27;;
61471;SDS011;47337;54.068;12.114;2022-07-10T09:59:12;5.18;;;0.93;;
61471;SDS011;47337;54.068;12.114;2022-07-10T10:01:49;4.72;;;0.90;;
61471;SDS011;47337;54.068;12.114;2022-07-10T10:04:18;5.35;;;1.30;;
61471;SDS011;47337;54.068;12.114;2022-07-10T10:06:56;3.45;;;0.82;;
61471;SDS011;47337;54.068;12.114;2022-07-10T10:11:49;4.65;;;1.00;;
61471;SDS011;47337;54.068;12.114;2022-07-10T10:14:27;3.17;;;0.77;;
61471;SDS011;47337;54.068;12.114;2022-07-10T10:16:54;3.45;;;0.80;;
61471;SDS011;47337;54.068;12.114;2022-07-10T10:19:24;3.78;;;0.90;;
61471;SDS011;47337;54.068;12.114;2022-07-10T10:22:10;4.13;;;0.77;;
61471;SDS011;47337;54.068;12.114;2022-07-10T10:24:37;2.45;;;0.75;;
61471;SDS011;47337;54.068;12.114;2022-07-10T10:27:04;3.65;;;1.42;;
61471;SDS011;47337;54.068;12.114;2022-07-10T10:29:32;4.72;;;0.95;;
61471;SDS011;47337;54.068;12.114;2022-07-10T10:32:00;5.65;;;1.00;;
61471;SDS011;47337;54.068;12.114;2022-07-10T10:34:42;7.03;;;1.50;;
61471;SDS011;47337;54.068;12.114;2022-07-10T10:39:55;5.95;;;1.20;;
61471;SDS011;47337;54.068;12.114;2022-07-10T10:42:35;4.47;;;0.90;;
61471;SDS011;47337;54.068;12.114;2022-07-10T10:45:42;5.88;;;1.27;;
61471;SDS011;47337;54.068;12.114;2022-07-10T10:48:05;3.77;;;1.23;;
61471;SDS011;47337;54.068;12.114;2022-07-10T10:53:03;5.18;;;1.10;;
61471;SDS011;47337;54.068;12.114;2022-07-10T10:55:29;4.45;;;1.00;;
61471;SDS011;47337;54.068;12.114;2022-07-10T10:57:54;4.30;;;0.95;;
61471;SDS011;47337;54.068;12.114;2022-07-10T11:00:38;5.00;;;1.13;;
61471;SDS011;47337;54.068;12.114;2022-07-10T11:03:22;3.70;;;0.98;;
61471;SDS011;47337;54.068;12.114;2022-07-10T11:05:50;5.80;;;1.05;;
61471;SDS011;47337;54.068;12.114;2022-07-10T11:08:36;5.25;;;0.88;;
61471;SDS011;47337;54.068;12.114;2022-07-10T11:13:58;3.97;;;1.02;;
61471;SDS011;47337;54.068;12.114;2022-07-10T11:16:24;5.97;;;1.20;;
61471;SDS011;47337;54.068;12.114;2022-07-10T11:18:53;4.03;;;0.90;;
61471;SDS011;47337;54.068;12.114;2022-07-10T11:21:23;3.03;;;0.90;;
61471;SDS011;47337;54.068;12.114;2022-07-10T11:27:09;5.55;;;1.00;;
61471;SDS011;47337;54.068;12.114;2022-07-10T11:29:57;5.97;;;1.27;;
61471;SDS011;47337;54.068;12.114;2022-07-10T11:32:24;8.35;;;1.83;;
61471;SDS011;47337;54.068;12.114;2022-07-10T11:34:50;3.08;;;1.00;;
61471;SDS011;47337;54.068;12.114;2022-07-10T11:37:15;6.32;;;1.30;;
61471;SDS011;47337;54.068;12.114;2022-07-10T11:39:42;6.72;;;1.67;;
61471;SDS011;47337;54.068;12.114;2022-07-10T11:42:08;6.40;;;1.40;;
61471;SDS011;47337;54.068;12.114;2022-07-10T11:44:34;8.10;;;1.38;;
61471;SDS011;47337;54.068;12.114;2022-07-10T11:47:01;6.70;;;1.23;;
61471;SDS011;47337;54.068;12.114;2022-07-10T11:49:28;3.90;;;1.08;;
61471;SDS011;47337;54.068;12.114;2022-07-10T11:51:54;4.60;;;1.20;;
61471;SDS011;47337;54.068;12.114;2022-07-10T11:54:25;5.38;;;1.45;;
61471;SDS011;47337;54.068;12.114;2022-07-10T11:56:52;4.45;;;1.20;;
61471;SDS011;47337;54.068;12.114;2022-07-10T11:59:18;6.03;;;1.13;;
61471;SDS011;47337;54.068;12.114;2022-07-10T12:01:51;5.35;;;1.15;;
61471;SDS011;47337;54.068;12.114;2022-07-10T12:04:18;5.20;;;1.00;;
61471;SDS011;47337;54.068;12.114;2022-07-10T12:06:48;5.53;;;1.08;;
61471;SDS011;47337;54.068;12.114;2022-07-10T12:09:18;5.38;;;1.10;;
61471;SDS011;47337;54.068;12.114;2022-07-10T12:11:57;5.50;;;1.30;;
61471;SDS011;47337;54.068;12.114;2022-07-10T12:14:30;8.05;;;0.88;;
61471;SDS011;47337;54.068;12.114;2022-07-10T12:17:00;3.85;;;1.15;;
61471;SDS011;47337;54.068;12.114;2022-07-10T12:19:27;3.35;;;0.65;;
61471;SDS011;47337;54.068;12.114;2022-07-10T12:21:55;3.83;;;1.00;;
61471;SDS011;47337;54.068;12.114;2022-07-10T12:24:20;5.10;;;1.00;;
61471;SDS011;47337;54.068;12.114;2022-07-10T12:26:49;5.00;;;0.98;;
61471;SDS011;47337;54.068;12.114;2022-07-10T12:31:51;6.55;;;1.42;;
61471;SDS011;47337;54.068;12.114;2022-07-10T12:34:34;5.25;;;1.20;;
61471;SDS011;47337;54.068;12.114;2022-07-10T12:37:11;4.45;;;1.00;;
61471;SDS011;47337;54.068;12.114;2022-07-10T12:39:48;4.55;;;1.08;;
61471;SDS011;47337;54.068;12.114;2022-07-10T12:42:36;2.75;;;0.80;;
61471;SDS011;47337;54.068;12.114;2022-07-10T12:47:48;9.50;;;1.20;;
61471;SDS011;47337;54.068;12.114;2022-07-10T12:50:18;4.57;;;0.90;;
61471;SDS011;47337;54.068;12.114;2022-07-10T12:52:43;4.20;;;0.93;;
61471;SDS011;47337;54.068;12.114;2022-07-10T12:55:21;7.55;;;1.15;;
61471;SDS011;47337;54.068;12.114;2022-07-10T13:03:09;5.60;;;1.38;;
61471;SDS011;47337;54.068;12.114;2022-07-10T13:05:42;3.03;;;0.70;;
61471;SDS011;47337;54.068;12.114;2022-07-10T13:10:56;4.80;;;0.73;;
61471;SDS011;47337;54.068;12.114;2022-07-10T13:13:25;4.38;;;1.05;;
61471;SDS011;47337;54.068;12.114;2022-07-10T13:15:50;4.43;;;0.80;;
61471;SDS011;47337;54.068;12.114;2022-07-10T13:18:27;3.95;;;0.95;;
61471;SDS011;47337;54.068;12.114;2022-07-10T13:20:53;5.63;;;1.10;;
61471;SDS011;47337;54.068;12.114;2022-07-10T13:23:23;3.53;;;0.98;;
61471;SDS011;47337;54.068;12.114;2022-07-10T13:25:54;4.10;;;1.05;;
61471;SDS011;47337;54.068;12.114;2022-07-10T13:28:20;2.83;;;0.93;;
61471;SDS011;47337;54.068;12.114;2022-07-10T13:30:46;3.08;;;0.82;;
61471;SDS011;47337;54.068;12.114;2022-07-10T13:33:12;1.98;;;0.70;;
61471;SDS011;47337;54.068;12.114;2022-07-10T13:35:42;2.03;;;0.65;;
61471;SDS011;47337;54.068;12.114;2022-07-10T13:38:10;2.05;;;0.50;;
61471;SDS011;47337;54.068;12.114;2022-07-10T13:40:36;2.30;;;0.43;;
61471;SDS011;47337;54.068;12.114;2022-07-10T13:43:02;7.03;;;1.63;;
61471;SDS011;47337;54.068;12.114;2022-07-10T13:45:29;2.15;;;0.50;;
61471;SDS011;47337;54.068;12.114;2022-07-10T13:48:01;2.40;;;0.85;;
61471;SDS011;47337;54.068;12.114;2022-07-10T13:50:28;2.33;;;0.85;;
61471;SDS011;47337;54.068;12.114;2022-07-10T13:52:53;3.90;;;0.80;;
61471;SDS011;47337;54.068;12.114;2022-07-10T13:55:18;2.47;;;0.63;;
61471;SDS011;47337;54.068;12.114;2022-07-10T13:57:44;2.55;;;0.80;;
61471;SDS011;47337;54.068;12.114;2022-07-10T14:00:09;1.75;;;0.45;;
61471;SDS011;47337;54.068;12.114;2022-07-10T14:02:36;2.65;;;0.70;;
61471;SDS011;47337;54.068;12.114;2022-07-10T14:05:02;1.95;;;0.80;;
61471;SDS011;47337;54.068;12.114;2022-07-10T14:07:28;5.55;;;1.08;;
61471;SDS011;47337;54.068;12.114;2022-07-10T14:09:53;3.60;;;0.88;;
61471;SDS011;47337;54.068;12.114;2022-07-10T14:12:19;2.13;;;0.75;;
61471;SDS011;47337;54.068;12.114;2022-07-10T14:14:44;2.22;;;0.88;;
61471;SDS011;47337;54.068;12.114;2022-07-10T14:17:10;1.65;;;0.75;;
61471;SDS011;47337;54.068;12.114;2022-07-10T14:19:38;3.50;;;0.88;;
61471;SDS011;47337;54.068;12.114;2022-07-10T14:22:06;2.25;;;0.90;;
61471;SDS011;47337;54.068;12.114;2022-07-10T14:24:32;4.03;;;0.90;;
61471;SDS011;47337;54.068;12.114;2022-07-10T14:26:57;2.78;;;0.60;;
61471;SDS011;47337;54.068;12.114;2022-07-10T14:29:26;3.40;;;0.85;;
61471;SDS011;47337;54.068;12.114;2022-07-10T14:31:51;3.92;;;0.90;;
61471;SDS011;47337;54.068;12.114;2022-07-10T14:34:20;3.47;;;0.80;;
61471;SDS011;47337;54.068;12.114;2022-07-10T14:36:49;3.42;;;0.60;;
61471;SDS011;47337;54.068;12.114;2022-07-10T14:39:17;4.03;;;1.10;;
61471;SDS011;47337;54.068;12.114;2022-07-10T14:41:42;4.65;;;0.70;;
61471;SDS011;47337;54.068;12.114;2022-07-10T14:44:07;3.42;;;0.82;;
61471;SDS011;47337;54.068;12.114;2022-07-10T14:46:33;5.63;;;1.02;;
61471;SDS011;47337;54.068;12.114;2022-07-10T14:48:59;3.50;;;0.90;;
61471;SDS011;47337;54.068;12.114;2022-07-10T14:51:25;3.63;;;0.93;;
61471;SDS011;47337;54.068;12.114;2022-07-10T14:53:50;3.45;;;0.75;;
61471;SDS011;47337;54.068;12.114;2022-07-10T14:56:16;3.88;;;0.80;;
61471;SDS011;47337;54.068;12.114;2022-07-10T14:58:42;3.55;;;0.80;;
61471;SDS011;47337;54.068;12.114;2022-07-10T15:01:07;2.85;;;0.73;;
61471;SDS011;47337;54.068;12.114;2022-07-10T15:03:33;5.80;;;0.70;;
61471;SDS011;47337;54.068;12.114;2022-07-10T15:05:59;1.77;;;0.93;;
61471;SDS011;47337;54.068;12.114;2022-07-10T15:08:25;2.08;;;0.57;;
61471;SDS011;47337;54.068;12.114;2022-07-10T15:10:51;6.18;;;1.10;;
61471;SDS011;47337;54.068;12.114;2022-07-10T15:13:17;3.55;;;0.90;;
61471;SDS011;47337;54.068;12.114;2022-07-10T15:15:45;4.68;;;0.95;;
61471;SDS011;47337;54.068;12.114;2022-07-10T15:18:11;3.28;;;0.90;;
61471;SDS011;47337;54.068;12.114;2022-07-10T15:20:36;3.13;;;0.60;;
61471;SDS011;47337;54.068;12.114;2022-07-10T15:23:07;2.25;;;0.88;;
61471;SDS011;47337;54.068;12.114;2022-07-10T15:25:32;3.88;;;0.85;;